Aeroporto :
LOGIN :

Iscrizione | Disclaimer

   EN    FR    IT 

 










Sommario :    VFR   VFR Marginale   IFR   IFR Intensivo   IFR Molto Intensivo
Visibilità : 
Base nubi : 
>= 8 km
>= 3000ft
5 / 8 km
1000 / 3000 ft
1500m / 5 km
500 / 1000 ft
800 / 1500m
200 / 500 ft
< 800m
< 200 ft
Simboli :   Temporali  Nebbia  Neve Forte  Precipitazioni Forti  Vento > 20 kt
SIGMETs :   Varie  Temporali  Ghiacco  Turbolenza  Onda orograficha  Ceneri Vulcaniche






- Altitudine del aeroporto : 51 ft
- Codice IATA : GWT


EDXW - Westerland-Sylt Island

ULTIMO METAR :
  • 250220Z AUTO 18021KT 9999 // FEW024/// SCT041/// OVC210/// 13/11 Q0999

METARs OBSOLETI :
  • 250150Z AUTO 18021KT 9999 // FEW021/// BKN032/// OVC039/// 13/11 Q0999
  • 250120Z AUTO 18019KT 9999 // FEW020/// OVC035/// 13/11 Q1000
  • 250050Z AUTO 18021KT 9999 // FEW019/// BKN037/// OVC210/// 13/11 Q1000
  • 250020Z AUTO 18020KT 9999 // FEW017/// SCT042/// BKN190/// 13/11 Q1001
  • 242350Z AUTO 18020KT 9999 // FEW016/// BKN020/// OVC044/// 13/11 Q1001
  • 242320Z AUTO 18020KT 9999 // FEW014/// SCT016/// BKN042/// 13/11 Q1001
  • 242250Z AUTO 18019KT 9999 // SCT013/// BKN015/// 13/11 Q1001
  • 242220Z AUTO 18018KT 9999 // OVC016/// 13/11 Q1002

Previsioni scadute.



MetMap, La meteo Aeronautica in un colpo d'occhio ! - Copyright ORBIFLY Dicembre 2007 - Disclaimer

ORBIFLY MET'MAP TEAM :

Programmazione e sviluppo : Alexandra Zaïnal
Concezione : Baudouin d'Aumeries
Aiuto per la programmazione : Marc-Olivier Méhu
Supporto tecnico e logistico : Manuel Goepfert
Aiuto per la traduzione : Arnaldo La Scala

Contatto : metmap@orbifly.com




FONTI E CREDITI :

   NOAA